sensor_id;sensor_type;location;lat;lon;timestamp;P1;durP1;ratioP1;P2;durP2;ratioP2
49840;SDS011;35738;49.890;5.930;2022-08-19T00:01:29;23.55;;;19.15;;
49840;SDS011;35738;49.890;5.930;2022-08-19T00:03:59;23.17;;;19.42;;
49840;SDS011;35738;49.890;5.930;2022-08-19T00:06:29;21.27;;;18.83;;
49840;SDS011;35738;49.890;5.930;2022-08-19T00:08:57;23.63;;;19.77;;
49840;SDS011;35738;49.890;5.930;2022-08-19T00:11:26;24.00;;;19.42;;
49840;SDS011;35738;49.890;5.930;2022-08-19T00:13:55;23.52;;;19.90;;
49840;SDS011;35738;49.890;5.930;2022-08-19T00:16:23;24.52;;;20.13;;
49840;SDS011;35738;49.890;5.930;2022-08-19T00:18:52;24.02;;;19.88;;
49840;SDS011;35738;49.890;5.930;2022-08-19T00:21:21;23.23;;;19.95;;
49840;SDS011;35738;49.890;5.930;2022-08-19T00:23:49;24.60;;;21.08;;
49840;SDS011;35738;49.890;5.930;2022-08-19T00:26:16;26.52;;;20.73;;
49840;SDS011;35738;49.890;5.930;2022-08-19T00:28:43;24.33;;;20.77;;
49840;SDS011;35738;49.890;5.930;2022-08-19T00:31:10;25.48;;;21.02;;
49840;SDS011;35738;49.890;5.930;2022-08-19T00:33:37;27.20;;;21.63;;
49840;SDS011;35738;49.890;5.930;2022-08-19T00:36:05;24.88;;;20.52;;
49840;SDS011;35738;49.890;5.930;2022-08-19T00:38:34;26.50;;;20.95;;
49840;SDS011;35738;49.890;5.930;2022-08-19T00:41:06;27.48;;;21.83;;
49840;SDS011;35738;49.890;5.930;2022-08-19T00:43:33;29.48;;;23.60;;
49840;SDS011;35738;49.890;5.930;2022-08-19T00:46:00;28.25;;;21.52;;
49840;SDS011;35738;49.890;5.930;2022-08-19T00:48:31;31.33;;;23.50;;
49840;SDS011;35738;49.890;5.930;2022-08-19T00:50:59;27.65;;;21.77;;
49840;SDS011;35738;49.890;5.930;2022-08-19T00:53:29;30.02;;;22.75;;
49840;SDS011;35738;49.890;5.930;2022-08-19T00:55:58;29.88;;;23.50;;
49840;SDS011;35738;49.890;5.930;2022-08-19T00:58:29;29.77;;;23.45;;
49840;SDS011;35738;49.890;5.930;2022-08-19T01:00:59;28.50;;;23.27;;
49840;SDS011;35738;49.890;5.930;2022-08-19T01:03:27;30.83;;;22.35;;
49840;SDS011;35738;49.890;5.930;2022-08-19T01:10:00;30.50;;;22.88;;
49840;SDS011;35738;49.890;5.930;2022-08-19T01:12:28;27.38;;;23.25;;
49840;SDS011;35738;49.890;5.930;2022-08-19T01:14:55;26.65;;;21.63;;
49840;SDS011;35738;49.890;5.930;2022-08-19T01:17:24;29.00;;;22.75;;
49840;SDS011;35738;49.890;5.930;2022-08-19T01:19:51;28.30;;;21.80;;
49840;SDS011;35738;49.890;5.930;2022-08-19T01:24:58;27.70;;;21.70;;
49840;SDS011;35738;49.890;5.930;2022-08-19T01:27:25;26.48;;;21.17;;
49840;SDS011;35738;49.890;5.930;2022-08-19T01:29:55;26.52;;;22.25;;
49840;SDS011;35738;49.890;5.930;2022-08-19T01:32:22;27.67;;;21.85;;
49840;SDS011;35738;49.890;5.930;2022-08-19T01:34:59;30.65;;;24.33;;
49840;SDS011;35738;49.890;5.930;2022-08-19T01:37:27;30.73;;;23.63;;
49840;SDS011;35738;49.890;5.930;2022-08-19T01:39:55;32.55;;;23.65;;
49840;SDS011;35738;49.890;5.930;2022-08-19T01:42:22;30.23;;;23.60;;
49840;SDS011;35738;49.890;5.930;2022-08-19T01:44:55;32.17;;;24.25;;
49840;SDS011;35738;49.890;5.930;2022-08-19T01:47:23;32.50;;;24.02;;
49840;SDS011;35738;49.890;5.930;2022-08-19T01:49:49;31.65;;;24.55;;
49840;SDS011;35738;49.890;5.930;2022-08-19T01:52:16;32.15;;;24.73;;
49840;SDS011;35738;49.890;5.930;2022-08-19T01:54:43;33.08;;;24.67;;
49840;SDS011;35738;49.890;5.930;2022-08-19T01:57:10;34.13;;;26.17;;
49840;SDS011;35738;49.890;5.930;2022-08-19T01:59:40;33.40;;;25.27;;
49840;SDS011;35738;49.890;5.930;2022-08-19T02:02:08;33.42;;;25.27;;
49840;SDS011;35738;49.890;5.930;2022-08-19T02:04:35;33.42;;;25.67;;
49840;SDS011;35738;49.890;5.930;2022-08-19T02:07:04;35.47;;;26.15;;
49840;SDS011;35738;49.890;5.930;2022-08-19T02:09:32;31.83;;;25.20;;
49840;SDS011;35738;49.890;5.930;2022-08-19T02:11:59;33.58;;;25.13;;
49840;SDS011;35738;49.890;5.930;2022-08-19T02:14:25;31.95;;;24.35;;
49840;SDS011;35738;49.890;5.930;2022-08-19T02:16:52;31.88;;;23.95;;
49840;SDS011;35738;49.890;5.930;2022-08-19T02:19:19;32.10;;;25.00;;
49840;SDS011;35738;49.890;5.930;2022-08-19T02:21:45;34.70;;;26.13;;
49840;SDS011;35738;49.890;5.930;2022-08-19T02:24:12;33.60;;;25.25;;
49840;SDS011;35738;49.890;5.930;2022-08-19T02:26:39;34.25;;;26.30;;
49840;SDS011;35738;49.890;5.930;2022-08-19T02:29:06;35.33;;;26.05;;
49840;SDS011;35738;49.890;5.930;2022-08-19T02:31:33;31.60;;;23.88;;
49840;SDS011;35738;49.890;5.930;2022-08-19T02:33:59;34.60;;;25.85;;
49840;SDS011;35738;49.890;5.930;2022-08-19T02:36:26;33.97;;;26.00;;
49840;SDS011;35738;49.890;5.930;2022-08-19T02:38:55;36.45;;;25.50;;
49840;SDS011;35738;49.890;5.930;2022-08-19T02:41:23;34.30;;;25.67;;
49840;SDS011;35738;49.890;5.930;2022-08-19T02:43:56;35.38;;;26.38;;
49840;SDS011;35738;49.890;5.930;2022-08-19T02:46:45;31.75;;;25.02;;
49840;SDS011;35738;49.890;5.930;2022-08-19T02:49:13;33.47;;;25.63;;
49840;SDS011;35738;49.890;5.930;2022-08-19T02:51:43;34.92;;;25.48;;
49840;SDS011;35738;49.890;5.930;2022-08-19T02:54:11;34.58;;;26.60;;
49840;SDS011;35738;49.890;5.930;2022-08-19T02:56:40;31.67;;;24.60;;
49840;SDS011;35738;49.890;5.930;2022-08-19T02:59:07;36.78;;;26.98;;
49840;SDS011;35738;49.890;5.930;2022-08-19T03:01:37;31.58;;;25.00;;
49840;SDS011;35738;49.890;5.930;2022-08-19T03:04:07;34.38;;;27.17;;
49840;SDS011;35738;49.890;5.930;2022-08-19T03:06:36;34.47;;;26.58;;
49840;SDS011;35738;49.890;5.930;2022-08-19T03:09:04;32.28;;;26.30;;
49840;SDS011;35738;49.890;5.930;2022-08-19T03:11:31;32.13;;;25.98;;
49840;SDS011;35738;49.890;5.930;2022-08-19T03:13:59;31.88;;;24.33;;
49840;SDS011;35738;49.890;5.930;2022-08-19T03:16:27;29.02;;;22.00;;
49840;SDS011;35738;49.890;5.930;2022-08-19T03:18:59;25.85;;;19.77;;
49840;SDS011;35738;49.890;5.930;2022-08-19T03:21:28;31.17;;;24.92;;
49840;SDS011;35738;49.890;5.930;2022-08-19T03:23:58;35.20;;;27.23;;
49840;SDS011;35738;49.890;5.930;2022-08-19T03:26:26;33.80;;;26.17;;
49840;SDS011;35738;49.890;5.930;2022-08-19T03:28:53;35.67;;;26.95;;
49840;SDS011;35738;49.890;5.930;2022-08-19T03:31:24;32.95;;;25.60;;
49840;SDS011;35738;49.890;5.930;2022-08-19T03:34:15;35.50;;;26.98;;
49840;SDS011;35738;49.890;5.930;2022-08-19T03:36:45;33.05;;;27.33;;
49840;SDS011;35738;49.890;5.930;2022-08-19T03:39:13;34.70;;;27.15;;
49840;SDS011;35738;49.890;5.930;2022-08-19T03:41:41;35.80;;;26.67;;
49840;SDS011;35738;49.890;5.930;2022-08-19T03:44:12;37.78;;;27.45;;
49840;SDS011;35738;49.890;5.930;2022-08-19T03:46:44;35.30;;;26.27;;
49840;SDS011;35738;49.890;5.930;2022-08-19T03:49:12;39.75;;;27.50;;
49840;SDS011;35738;49.890;5.930;2022-08-19T03:51:40;35.40;;;27.20;;
49840;SDS011;35738;49.890;5.930;2022-08-19T03:54:08;37.05;;;28.17;;
49840;SDS011;35738;49.890;5.930;2022-08-19T03:56:37;38.05;;;28.38;;
49840;SDS011;35738;49.890;5.930;2022-08-19T03:59:06;39.03;;;28.55;;
49840;SDS011;35738;49.890;5.930;2022-08-19T04:01:36;36.65;;;28.85;;
49840;SDS011;35738;49.890;5.930;2022-08-19T04:04:03;40.67;;;29.90;;
49840;SDS011;35738;49.890;5.930;2022-08-19T04:06:31;39.80;;;29.35;;
49840;SDS011;35738;49.890;5.930;2022-08-19T04:09:01;38.25;;;29.67;;
49840;SDS011;35738;49.890;5.930;2022-08-19T04:11:34;40.60;;;30.08;;
49840;SDS011;35738;49.890;5.930;2022-08-19T04:14:21;42.97;;;32.22;;
49840;SDS011;35738;49.890;5.930;2022-08-19T04:16:50;41.63;;;31.15;;
49840;SDS011;35738;49.890;5.930;2022-08-19T04:19:17;40.08;;;28.88;;
49840;SDS011;35738;49.890;5.930;2022-08-19T04:21:45;40.53;;;30.35;;
49840;SDS011;35738;49.890;5.930;2022-08-19T04:24:16;38.00;;;29.33;;
49840;SDS011;35738;49.890;5.930;2022-08-19T04:26:44;39.33;;;29.38;;
49840;SDS011;35738;49.890;5.930;2022-08-19T04:29:16;41.35;;;30.50;;
49840;SDS011;35738;49.890;5.930;2022-08-19T04:31:48;39.97;;;29.83;;
49840;SDS011;35738;49.890;5.930;2022-08-19T04:34:16;41.20;;;30.90;;
49840;SDS011;35738;49.890;5.930;2022-08-19T04:36:48;43.42;;;29.80;;
49840;SDS011;35738;49.890;5.930;2022-08-19T04:39:18;40.97;;;29.05;;
49840;SDS011;35738;49.890;5.930;2022-08-19T04:41:49;40.60;;;30.38;;
49840;SDS011;35738;49.890;5.930;2022-08-19T04:44:35;41.40;;;30.20;;
49840;SDS011;35738;49.890;5.930;2022-08-19T04:47:11;41.00;;;30.55;;
49840;SDS011;35738;49.890;5.930;2022-08-19T04:49:38;44.25;;;30.58;;
49840;SDS011;35738;49.890;5.930;2022-08-19T04:52:05;43.63;;;31.58;;
49840;SDS011;35738;49.890;5.930;2022-08-19T04:54:32;44.10;;;32.30;;
49840;SDS011;35738;49.890;5.930;2022-08-19T04:57:04;44.30;;;32.33;;
49840;SDS011;35738;49.890;5.930;2022-08-19T04:59:33;45.60;;;32.80;;
49840;SDS011;35738;49.890;5.930;2022-08-19T05:02:00;50.20;;;34.03;;
49840;SDS011;35738;49.890;5.930;2022-08-19T05:04:28;53.20;;;34.63;;
49840;SDS011;35738;49.890;5.930;2022-08-19T05:06:58;50.08;;;34.28;;
49840;SDS011;35738;49.890;5.930;2022-08-19T05:09:26;53.15;;;35.30;;
49840;SDS011;35738;49.890;5.930;2022-08-19T05:12:14;53.30;;;35.83;;
49840;SDS011;35738;49.890;5.930;2022-08-19T05:14:42;53.53;;;35.97;;
49840;SDS011;35738;49.890;5.930;2022-08-19T05:17:08;45.45;;;33.22;;
49840;SDS011;35738;49.890;5.930;2022-08-19T05:19:55;49.30;;;34.45;;
49840;SDS011;35738;49.890;5.930;2022-08-19T05:22:41;49.88;;;34.75;;
49840;SDS011;35738;49.890;5.930;2022-08-19T05:25:10;40.72;;;28.70;;
49840;SDS011;35738;49.890;5.930;2022-08-19T05:27:41;45.53;;;32.90;;
49840;SDS011;35738;49.890;5.930;2022-08-19T05:30:09;50.75;;;34.15;;
49840;SDS011;35738;49.890;5.930;2022-08-19T05:32:37;50.38;;;35.25;;
49840;SDS011;35738;49.890;5.930;2022-08-19T05:35:05;54.58;;;36.72;;
49840;SDS011;35738;49.890;5.930;2022-08-19T05:37:32;47.70;;;33.25;;
49840;SDS011;35738;49.890;5.930;2022-08-19T05:39:59;51.95;;;35.85;;
49840;SDS011;35738;49.890;5.930;2022-08-19T05:42:25;53.80;;;37.70;;
49840;SDS011;35738;49.890;5.930;2022-08-19T05:44:53;51.70;;;36.13;;
49840;SDS011;35738;49.890;5.930;2022-08-19T05:47:19;56.00;;;36.58;;
49840;SDS011;35738;49.890;5.930;2022-08-19T05:49:47;47.42;;;33.90;;
49840;SDS011;35738;49.890;5.930;2022-08-19T05:52:16;50.58;;;35.97;;
49840;SDS011;35738;49.890;5.930;2022-08-19T05:54:44;46.60;;;33.83;;
49840;SDS011;35738;49.890;5.930;2022-08-19T05:57:17;47.25;;;35.35;;
49840;SDS011;35738;49.890;5.930;2022-08-19T05:59:45;48.47;;;35.17;;
49840;SDS011;35738;49.890;5.930;2022-08-19T06:02:18;48.33;;;36.55;;
49840;SDS011;35738;49.890;5.930;2022-08-19T06:04:45;56.67;;;39.08;;
49840;SDS011;35738;49.890;5.930;2022-08-19T06:07:12;72.18;;;44.00;;
49840;SDS011;35738;49.890;5.930;2022-08-19T06:09:39;74.15;;;46.08;;
49840;SDS011;35738;49.890;5.930;2022-08-19T06:12:06;69.15;;;43.95;;
49840;SDS011;35738;49.890;5.930;2022-08-19T06:14:34;70.13;;;42.28;;
49840;SDS011;35738;49.890;5.930;2022-08-19T06:17:07;92.05;;;48.25;;
49840;SDS011;35738;49.890;5.930;2022-08-19T06:19:34;86.80;;;47.92;;
49840;SDS011;35738;49.890;5.930;2022-08-19T06:22:06;99.13;;;51.00;;
49840;SDS011;35738;49.890;5.930;2022-08-19T06:24:33;106.82;;;51.90;;
49840;SDS011;35738;49.890;5.930;2022-08-19T06:27:02;114.10;;;52.10;;
49840;SDS011;35738;49.890;5.930;2022-08-19T06:29:31;111.07;;;52.55;;
49840;SDS011;35738;49.890;5.930;2022-08-19T06:32:00;144.45;;;56.92;;
49840;SDS011;35738;49.890;5.930;2022-08-19T06:34:29;140.82;;;56.10;;
49840;SDS011;35738;49.890;5.930;2022-08-19T06:36:58;127.57;;;54.80;;
49840;SDS011;35738;49.890;5.930;2022-08-19T06:39:28;130.20;;;55.22;;
49840;SDS011;35738;49.890;5.930;2022-08-19T06:41:59;171.43;;;61.45;;
49840;SDS011;35738;49.890;5.930;2022-08-19T06:44:29;149.18;;;61.40;;
49840;SDS011;35738;49.890;5.930;2022-08-19T06:47:08;150.57;;;62.42;;
49840;SDS011;35738;49.890;5.930;2022-08-19T06:49:40;159.52;;;62.50;;
49840;SDS011;35738;49.890;5.930;2022-08-19T06:52:07;162.73;;;65.03;;
49840;SDS011;35738;49.890;5.930;2022-08-19T06:54:39;102.47;;;44.63;;
49840;SDS011;35738;49.890;5.930;2022-08-19T06:57:22;161.50;;;63.03;;
49840;SDS011;35738;49.890;5.930;2022-08-19T06:59:50;82.80;;;40.88;;
49840;SDS011;35738;49.890;5.930;2022-08-19T07:02:18;117.03;;;53.50;;
49840;SDS011;35738;49.890;5.930;2022-08-19T07:04:45;74.05;;;37.13;;
49840;SDS011;35738;49.890;5.930;2022-08-19T07:07:13;97.10;;;47.90;;
49840;SDS011;35738;49.890;5.930;2022-08-19T07:09:46;82.97;;;41.95;;
49840;SDS011;35738;49.890;5.930;2022-08-19T07:12:25;115.53;;;52.80;;
49840;SDS011;35738;49.890;5.930;2022-08-19T07:14:56;83.47;;;43.83;;
49840;SDS011;35738;49.890;5.930;2022-08-19T07:17:23;104.50;;;50.20;;
49840;SDS011;35738;49.890;5.930;2022-08-19T07:19:51;71.40;;;38.92;;
49840;SDS011;35738;49.890;5.930;2022-08-19T07:22:20;111.97;;;53.03;;
49840;SDS011;35738;49.890;5.930;2022-08-19T07:24:49;81.25;;;42.47;;
49840;SDS011;35738;49.890;5.930;2022-08-19T07:27:19;81.82;;;42.80;;
49840;SDS011;35738;49.890;5.930;2022-08-19T07:29:50;94.93;;;49.70;;
49840;SDS011;35738;49.890;5.930;2022-08-19T07:32:22;86.38;;;44.50;;
49840;SDS011;35738;49.890;5.930;2022-08-19T07:34:52;93.70;;;46.63;;
49840;SDS011;35738;49.890;5.930;2022-08-19T07:37:19;89.38;;;46.70;;
49840;SDS011;35738;49.890;5.930;2022-08-19T07:39:46;66.63;;;37.38;;
49840;SDS011;35738;49.890;5.930;2022-08-19T07:42:13;77.35;;;41.63;;
49840;SDS011;35738;49.890;5.930;2022-08-19T07:44:41;84.15;;;44.92;;
49840;SDS011;35738;49.890;5.930;2022-08-19T07:47:16;65.18;;;35.63;;
49840;SDS011;35738;49.890;5.930;2022-08-19T07:50:05;78.05;;;42.78;;
49840;SDS011;35738;49.890;5.930;2022-08-19T07:52:34;69.03;;;36.75;;
49840;SDS011;35738;49.890;5.930;2022-08-19T07:55:02;74.90;;;41.33;;
49840;SDS011;35738;49.890;5.930;2022-08-19T07:57:30;56.63;;;31.58;;
49840;SDS011;35738;49.890;5.930;2022-08-19T07:59:58;53.63;;;29.45;;
49840;SDS011;35738;49.890;5.930;2022-08-19T08:02:25;68.80;;;36.35;;
49840;SDS011;35738;49.890;5.930;2022-08-19T08:04:51;65.65;;;35.97;;
49840;SDS011;35738;49.890;5.930;2022-08-19T08:07:37;62.58;;;35.53;;
49840;SDS011;35738;49.890;5.930;2022-08-19T08:10:21;58.78;;;34.55;;
49840;SDS011;35738;49.890;5.930;2022-08-19T08:12:50;59.97;;;34.75;;
49840;SDS011;35738;49.890;5.930;2022-08-19T08:15:36;64.88;;;38.03;;
49840;SDS011;35738;49.890;5.930;2022-08-19T08:18:09;69.28;;;38.70;;
49840;SDS011;35738;49.890;5.930;2022-08-19T08:20:37;67.25;;;37.78;;
49840;SDS011;35738;49.890;5.930;2022-08-19T08:23:04;59.15;;;34.97;;
49840;SDS011;35738;49.890;5.930;2022-08-19T08:25:49;64.43;;;36.88;;
49840;SDS011;35738;49.890;5.930;2022-08-19T08:28:17;44.70;;;26.65;;
49840;SDS011;35738;49.890;5.930;2022-08-19T08:30:46;64.97;;;37.92;;
49840;SDS011;35738;49.890;5.930;2022-08-19T08:33:19;58.85;;;35.30;;
49840;SDS011;35738;49.890;5.930;2022-08-19T08:35:59;58.70;;;34.97;;
49840;SDS011;35738;49.890;5.930;2022-08-19T08:38:37;61.20;;;34.45;;
49840;SDS011;35738;49.890;5.930;2022-08-19T08:43:49;48.20;;;29.67;;
49840;SDS011;35738;49.890;5.930;2022-08-19T08:46:21;47.55;;;28.95;;
49840;SDS011;35738;49.890;5.930;2022-08-19T08:49:05;52.60;;;30.60;;
49840;SDS011;35738;49.890;5.930;2022-08-19T08:51:51;46.72;;;27.55;;
49840;SDS011;35738;49.890;5.930;2022-08-19T08:54:30;48.00;;;29.40;;
49840;SDS011;35738;49.890;5.930;2022-08-19T08:57:04;49.25;;;30.23;;
49840;SDS011;35738;49.890;5.930;2022-08-19T08:59:39;39.05;;;25.00;;
49840;SDS011;35738;49.890;5.930;2022-08-19T09:02:08;46.40;;;29.20;;
49840;SDS011;35738;49.890;5.930;2022-08-19T09:04:36;45.42;;;29.38;;
49840;SDS011;35738;49.890;5.930;2022-08-19T09:09:56;46.38;;;28.98;;
49840;SDS011;35738;49.890;5.930;2022-08-19T09:12:47;44.67;;;28.65;;
49840;SDS011;35738;49.890;5.930;2022-08-19T09:15:30;47.35;;;29.38;;
49840;SDS011;35738;49.890;5.930;2022-08-19T09:18:03;45.92;;;29.60;;
49840;SDS011;35738;49.890;5.930;2022-08-19T09:20:32;46.65;;;30.00;;
49840;SDS011;35738;49.890;5.930;2022-08-19T09:22:59;43.67;;;28.77;;
49840;SDS011;35738;49.890;5.930;2022-08-19T09:25:26;45.70;;;29.40;;
49840;SDS011;35738;49.890;5.930;2022-08-19T09:27:55;42.15;;;28.65;;
49840;SDS011;35738;49.890;5.930;2022-08-19T09:30:30;49.58;;;31.75;;
49840;SDS011;35738;49.890;5.930;2022-08-19T09:32:59;40.75;;;27.05;;
49840;SDS011;35738;49.890;5.930;2022-08-19T09:35:28;50.13;;;31.45;;
49840;SDS011;35738;49.890;5.930;2022-08-19T09:37:56;44.47;;;30.60;;
49840;SDS011;35738;49.890;5.930;2022-08-19T09:40:26;47.97;;;31.25;;
49840;SDS011;35738;49.890;5.930;2022-08-19T09:42:56;42.95;;;30.15;;
49840;SDS011;35738;49.890;5.930;2022-08-19T09:45:23;43.72;;;29.85;;
49840;SDS011;35738;49.890;5.930;2022-08-19T09:47:51;40.60;;;28.88;;
49840;SDS011;35738;49.890;5.930;2022-08-19T09:50:21;39.78;;;29.38;;
49840;SDS011;35738;49.890;5.930;2022-08-19T09:52:49;47.05;;;32.30;;
49840;SDS011;35738;49.890;5.930;2022-08-19T09:55:23;45.13;;;30.58;;
49840;SDS011;35738;49.890;5.930;2022-08-19T09:57:57;45.40;;;31.55;;
49840;SDS011;35738;49.890;5.930;2022-08-19T10:00:25;49.28;;;32.05;;
49840;SDS011;35738;49.890;5.930;2022-08-19T10:02:53;53.20;;;34.22;;
49840;SDS011;35738;49.890;5.930;2022-08-19T10:05:19;41.90;;;28.38;;
49840;SDS011;35738;49.890;5.930;2022-08-19T10:08:08;38.53;;;26.58;;
49840;SDS011;35738;49.890;5.930;2022-08-19T10:10:39;41.13;;;28.77;;
49840;SDS011;35738;49.890;5.930;2022-08-19T10:13:12;40.00;;;28.25;;
49840;SDS011;35738;49.890;5.930;2022-08-19T10:15:40;41.20;;;26.77;;
49840;SDS011;35738;49.890;5.930;2022-08-19T10:18:13;36.03;;;26.25;;
49840;SDS011;35738;49.890;5.930;2022-08-19T10:20:40;37.35;;;26.95;;
49840;SDS011;35738;49.890;5.930;2022-08-19T10:23:08;33.53;;;25.05;;
49840;SDS011;35738;49.890;5.930;2022-08-19T10:25:35;36.35;;;25.88;;
49840;SDS011;35738;49.890;5.930;2022-08-19T10:28:03;36.95;;;28.23;;
49840;SDS011;35738;49.890;5.930;2022-08-19T10:30:36;35.88;;;25.38;;
49840;SDS011;35738;49.890;5.930;2022-08-19T10:33:03;30.83;;;22.50;;
49840;SDS011;35738;49.890;5.930;2022-08-19T10:35:36;27.05;;;20.25;;
49840;SDS011;35738;49.890;5.930;2022-08-19T10:38:22;21.42;;;16.58;;
49840;SDS011;35738;49.890;5.930;2022-08-19T10:40:57;24.13;;;18.90;;
49840;SDS011;35738;49.890;5.930;2022-08-19T10:43:24;24.88;;;19.35;;
49840;SDS011;35738;49.890;5.930;2022-08-19T10:45:52;27.60;;;21.20;;
49840;SDS011;35738;49.890;5.930;2022-08-19T10:48:28;29.80;;;21.42;;
49840;SDS011;35738;49.890;5.930;2022-08-19T10:50:56;29.20;;;20.35;;
49840;SDS011;35738;49.890;5.930;2022-08-19T10:53:48;22.15;;;17.13;;
49840;SDS011;35738;49.890;5.930;2022-08-19T10:56:15;22.00;;;16.35;;
49840;SDS011;35738;49.890;5.930;2022-08-19T10:59:01;23.00;;;17.98;;
49840;SDS011;35738;49.890;5.930;2022-08-19T11:01:30;18.80;;;14.10;;
49840;SDS011;35738;49.890;5.930;2022-08-19T11:04:00;18.33;;;13.57;;
49840;SDS011;35738;49.890;5.930;2022-08-19T11:06:27;19.63;;;15.38;;
49840;SDS011;35738;49.890;5.930;2022-08-19T11:08:56;23.10;;;15.68;;
49840;SDS011;35738;49.890;5.930;2022-08-19T11:11:22;16.20;;;12.05;;
49840;SDS011;35738;49.890;5.930;2022-08-19T11:13:50;16.88;;;12.05;;
49840;SDS011;35738;49.890;5.930;2022-08-19T11:16:17;29.65;;;20.90;;
49840;SDS011;35738;49.890;5.930;2022-08-19T11:18:47;14.70;;;11.35;;
49840;SDS011;35738;49.890;5.930;2022-08-19T11:21:21;14.25;;;9.48;;
49840;SDS011;35738;49.890;5.930;2022-08-19T11:23:53;17.33;;;10.85;;
49840;SDS011;35738;49.890;5.930;2022-08-19T11:26:23;15.45;;;11.57;;
49840;SDS011;35738;49.890;5.930;2022-08-19T11:28:50;13.43;;;9.55;;
49840;SDS011;35738;49.890;5.930;2022-08-19T11:31:21;17.98;;;12.25;;
49840;SDS011;35738;49.890;5.930;2022-08-19T11:33:55;18.92;;;12.18;;
49840;SDS011;35738;49.890;5.930;2022-08-19T11:36:23;20.67;;;12.43;;
49840;SDS011;35738;49.890;5.930;2022-08-19T11:38:50;11.55;;;7.85;;
49840;SDS011;35738;49.890;5.930;2022-08-19T11:41:19;11.68;;;8.88;;
49840;SDS011;35738;49.890;5.930;2022-08-19T11:43:49;16.38;;;7.30;;
49840;SDS011;35738;49.890;5.930;2022-08-19T11:46:19;9.02;;;6.85;;
49840;SDS011;35738;49.890;5.930;2022-08-19T11:48:46;10.50;;;7.30;;
49840;SDS011;35738;49.890;5.930;2022-08-19T11:51:16;8.20;;;6.32;;
49840;SDS011;35738;49.890;5.930;2022-08-19T11:53:46;10.88;;;6.63;;
49840;SDS011;35738;49.890;5.930;2022-08-19T11:56:13;9.88;;;7.07;;
49840;SDS011;35738;49.890;5.930;2022-08-19T11:58:40;9.65;;;6.50;;
49840;SDS011;35738;49.890;5.930;2022-08-19T12:01:08;8.32;;;6.68;;
49840;SDS011;35738;49.890;5.930;2022-08-19T12:03:37;7.38;;;6.68;;
49840;SDS011;35738;49.890;5.930;2022-08-19T12:06:09;9.43;;;6.90;;
49840;SDS011;35738;49.890;5.930;2022-08-19T12:08:44;13.32;;;7.50;;
49840;SDS011;35738;49.890;5.930;2022-08-19T12:11:13;8.40;;;6.25;;
49840;SDS011;35738;49.890;5.930;2022-08-19T12:13:41;8.60;;;6.13;;
49840;SDS011;35738;49.890;5.930;2022-08-19T12:16:15;7.82;;;4.18;;
49840;SDS011;35738;49.890;5.930;2022-08-19T12:19:06;142.93;;;10.05;;
49840;SDS011;35738;49.890;5.930;2022-08-19T12:21:34;9.07;;;3.10;;
49840;SDS011;35738;49.890;5.930;2022-08-19T12:24:03;3.78;;;2.95;;
49840;SDS011;35738;49.890;5.930;2022-08-19T12:26:31;11.50;;;2.80;;
49840;SDS011;35738;49.890;5.930;2022-08-19T12:29:01;2.25;;;2.10;;
49840;SDS011;35738;49.890;5.930;2022-08-19T12:31:28;2.58;;;2.03;;
49840;SDS011;35738;49.890;5.930;2022-08-19T12:33:55;2.10;;;1.90;;
49840;SDS011;35738;49.890;5.930;2022-08-19T12:36:21;1.90;;;1.80;;
49840;SDS011;35738;49.890;5.930;2022-08-19T12:38:49;1.50;;;1.40;;
49840;SDS011;35738;49.890;5.930;2022-08-19T12:41:16;2.85;;;1.55;;
49840;SDS011;35738;49.890;5.930;2022-08-19T12:43:44;1.90;;;1.33;;
49840;SDS011;35738;49.890;5.930;2022-08-19T12:46:11;3.88;;;1.17;;
49840;SDS011;35738;49.890;5.930;2022-08-19T12:48:38;1.30;;;1.30;;
49840;SDS011;35738;49.890;5.930;2022-08-19T12:51:08;1.27;;;1.10;;
49840;SDS011;35738;49.890;5.930;2022-08-19T12:53:38;0.90;;;0.90;;
49840;SDS011;35738;49.890;5.930;2022-08-19T12:56:06;0.73;;;0.73;;
49840;SDS011;35738;49.890;5.930;2022-08-19T12:58:37;0.63;;;0.63;;
49840;SDS011;35738;49.890;5.930;2022-08-19T13:01:09;0.95;;;0.90;;
49840;SDS011;35738;49.890;5.930;2022-08-19T13:03:37;0.73;;;0.73;;
49840;SDS011;35738;49.890;5.930;2022-08-19T13:06:06;1.65;;;0.90;;
49840;SDS011;35738;49.890;5.930;2022-08-19T13:08:33;0.70;;;0.70;;
49840;SDS011;35738;49.890;5.930;2022-08-19T13:11:34;3.70;;;0.88;;
49840;SDS011;35738;49.890;5.930;2022-08-19T13:13:58;1.02;;;0.80;;
49840;SDS011;35738;49.890;5.930;2022-08-19T13:16:25;0.70;;;0.70;;
49840;SDS011;35738;49.890;5.930;2022-08-19T13:18:54;2.20;;;0.90;;
49840;SDS011;35738;49.890;5.930;2022-08-19T13:21:23;1.30;;;0.60;;
49840;SDS011;35738;49.890;5.930;2022-08-19T13:23:52;0.68;;;0.68;;
49840;SDS011;35738;49.890;5.930;2022-08-19T13:26:20;0.50;;;0.50;;
49840;SDS011;35738;49.890;5.930;2022-08-19T13:28:47;0.70;;;0.70;;
49840;SDS011;35738;49.890;5.930;2022-08-19T13:31:33;2.95;;;0.70;;
49840;SDS011;35738;49.890;5.930;2022-08-19T13:34:26;0.60;;;0.60;;
49840;SDS011;35738;49.890;5.930;2022-08-19T13:36:56;0.75;;;0.75;;
49840;SDS011;35738;49.890;5.930;2022-08-19T13:39:23;0.75;;;0.75;;
49840;SDS011;35738;49.890;5.930;2022-08-19T13:41:50;1.75;;;0.70;;
49840;SDS011;35738;49.890;5.930;2022-08-19T13:44:17;0.70;;;0.70;;
49840;SDS011;35738;49.890;5.930;2022-08-19T13:46:45;0.70;;;0.70;;
49840;SDS011;35738;49.890;5.930;2022-08-19T13:49:13;0.68;;;0.63;;
49840;SDS011;35738;49.890;5.930;2022-08-19T13:51:41;0.70;;;0.70;;
49840;SDS011;35738;49.890;5.930;2022-08-19T13:54:09;0.57;;;0.52;;
49840;SDS011;35738;49.890;5.930;2022-08-19T13:56:44;1.15;;;0.70;;
49840;SDS011;35738;49.890;5.930;2022-08-19T13:59:11;1.45;;;0.65;;
49840;SDS011;35738;49.890;5.930;2022-08-19T14:01:38;0.63;;;0.60;;
49840;SDS011;35738;49.890;5.930;2022-08-19T14:04:06;1.00;;;1.00;;
49840;SDS011;35738;49.890;5.930;2022-08-19T14:06:33;0.70;;;0.60;;
49840;SDS011;35738;49.890;5.930;2022-08-19T14:09:00;0.88;;;0.80;;
49840;SDS011;35738;49.890;5.930;2022-08-19T14:11:29;0.70;;;0.70;;
49840;SDS011;35738;49.890;5.930;2022-08-19T14:13:55;1.45;;;0.70;;
49840;SDS011;35738;49.890;5.930;2022-08-19T14:16:22;0.65;;;0.60;;
49840;SDS011;35738;49.890;5.930;2022-08-19T14:18:49;1.67;;;0.57;;
49840;SDS011;35738;49.890;5.930;2022-08-19T14:21:16;1.85;;;0.70;;
49840;SDS011;35738;49.890;5.930;2022-08-19T14:23:46;0.50;;;0.50;;
49840;SDS011;35738;49.890;5.930;2022-08-19T14:26:14;1.05;;;0.60;;
49840;SDS011;35738;49.890;5.930;2022-08-19T14:28:42;0.90;;;0.50;;
49840;SDS011;35738;49.890;5.930;2022-08-19T14:31:10;0.70;;;0.65;;
49840;SDS011;35738;49.890;5.930;2022-08-19T14:33:37;1.33;;;0.70;;
49840;SDS011;35738;49.890;5.930;2022-08-19T14:36:04;0.68;;;0.65;;
49840;SDS011;35738;49.890;5.930;2022-08-19T14:38:31;0.73;;;0.60;;
49840;SDS011;35738;49.890;5.930;2022-08-19T14:41:09;1.05;;;0.70;;
49840;SDS011;35738;49.890;5.930;2022-08-19T14:43:51;0.60;;;0.60;;
49840;SDS011;35738;49.890;5.930;2022-08-19T14:46:21;1.13;;;0.50;;
49840;SDS011;35738;49.890;5.930;2022-08-19T14:48:50;2.78;;;0.70;;
49840;SDS011;35738;49.890;5.930;2022-08-19T14:51:18;2.42;;;0.80;;
49840;SDS011;35738;49.890;5.930;2022-08-19T14:53:46;0.60;;;0.60;;
49840;SDS011;35738;49.890;5.930;2022-08-19T14:56:16;1.88;;;0.70;;